Wallblake, Anguilla

6:41 AM AST on November 26, 2014 (GMT -0400)
Cole Bay, St.Maarten | Change Station
CLOSE
Current Station
Personal Weather Station
Location: Cole Bay, SINT MAARTEN
Elevation: 171 ft
Nearby Weather Stations

Elev 171 ft 18.04 °N, 63.08 °W | Updated 1 minute ago

Scattered Clouds
Scattered Clouds
78.4 °F
Feels Like 81 °F
N
2.0
Wind Variable Wind from WNW
Gusts 7.0 mph

Today
High -- | Low -- °F
--% Chance of Precip.
Yesterday
High -- | Low -- °F
Precip. -- in
6:24 AM 5:34 PM
Waxing Crescent, 18% visible
Pressure 29.98 in
Visibility 6.2 miles
Clouds Scattered Clouds 2000 ft
Heat Index 81 °F
Dew Point 72 °F
Humidity 81%
Rainfall 0.00 in
Snow Depth Not available.
UV 0 out of 12
Pollen Not available.
Air Quality Not available.
Flu Activity Not available.
METAR TNCM 261000Z 07012KT 050V110 9999 SCT020 27/22 Q1015 A2997 NOSI G

More Conditions Fewer Conditions

Pressure 29.98 in
Visibility 6.2 miles
Clouds Scattered Clouds 2000 ft
Heat Index 81 °F
Dew Point 72 °F
Humidity 81%
Rainfall 0.00 in
Snow Depth Not available.
UV 0 out of 12
Pollen Not available.
Air Quality Not available.
Flu Activity Not available.
METAR TNCM 261000Z 07012KT 050V110 9999 SCT020 27/22 Q1015 A2997 NOSI G

More Conditions Fewer Conditions

10-Day Weather Forecast

Almanac

Astronomy

Nov. 26, 2014 Rise Set
Actual Time
Civil Twilight
Nautical Twilight
Astronomical Twilight
Moon
Length of Visible Light
Length of Day
Tomorrow will be .
, % of the Moon is Illuminated

Today's Extremes

Country Highs Country Lows

Community

WunderPhotos

Upload Photos

1,773,708 photos uploaded!

WunderBlogs® & News

Nearby

Air Quality

  Air Quality AQ Index Pollutant
Not available.

Snow Depth

Station Depth Elevation

Earthquake Activity

City Distance Mag. Time & Date
Minimum magnitude displayed is 2.5.

Coastal Water Temperatures

Place Temperature

Nearby Weather Stations